Time;durP1;ratioP1;P1;durP2;ratioP2;P2;SDS_P1;SDS_P2;PMS_P1;PMS_P2;Temp;Humidity;BMP_temperature;BMP_pressure;BME280_temperature;BME280_humidity;BME280_pressure;Samples;Min_cycle;Max_cycle;Signal;HPM_P1;HPM_P2
2023/09/27 00:02:03;;;;;;;3.33;2.90;;;13.90;81.30;;;;;;4987593;28;20042;-62
2023/09/27 00:04:29;;;;;;;3.60;3.30;;;13.90;81.30;;;;;;4986854;28;20081;-62
2023/09/27 00:06:55;;;;;;;3.10;2.70;;;13.90;81.30;;;;;;4991753;28;20113;-62
2023/09/27 00:09:20;;;;;;;3.80;2.90;;;13.80;81.30;;;;;;4990225;28;20045;-61
2023/09/27 00:11:46;;;;;;;3.30;3.10;;;13.70;81.70;;;;;;4983605;28;20038;-62
2023/09/27 00:14:13;;;;;;;2.85;2.65;;;13.70;82.00;;;;;;4992175;28;20405;-62
2023/09/27 00:16:39;;;;;;;3.30;3.10;;;13.60;82.50;;;;;;4987937;28;20045;-62
2023/09/27 00:19:05;;;;;;;4.95;2.50;;;13.60;82.90;;;;;;4986461;28;20540;-62
2023/09/27 00:21:31;;;;;;;3.80;2.70;;;13.60;83.10;;;;;;4987103;28;20207;-62
2023/09/27 00:23:56;;;;;;;3.13;2.90;;;13.50;83.10;;;;;;4991509;28;20072;-62
2023/09/27 00:26:22;;;;;;;4.88;2.70;;;13.60;82.90;;;;;;4990945;28;20042;-62
2023/09/27 00:28:47;;;;;;;2.90;2.60;;;13.50;82.80;;;;;;4989906;28;20026;-61
2023/09/27 00:31:14;;;;;;;2.60;2.40;;;13.50;82.70;;;;;;4989881;28;20602;-62
2023/09/27 00:33:40;;;;;;;3.13;2.60;;;13.60;82.60;;;;;;4989128;28;20105;-62
2023/09/27 00:36:06;;;;;;;3.10;2.80;;;13.50;82.40;;;;;;4988815;28;20497;-62
2023/09/27 00:38:31;;;;;;;2.78;2.53;;;13.50;82.30;;;;;;4991045;28;20035;-62
2023/09/27 00:40:57;;;;;;;2.70;2.50;;;13.40;82.20;;;;;;4990206;28;20261;-62
2023/09/27 00:43:30;;;;;;;4.75;2.72;;;13.40;82.20;;;;;;4987396;28;20085;-62
2023/09/27 00:46:06;;;;;;;3.13;2.90;;;13.30;82.40;;;;;;4989512;28;20064;-62
2023/09/27 00:48:34;;;;;;;3.15;2.88;;;13.30;82.70;;;;;;4987284;28;20042;-61
2023/09/27 00:51:01;;;;;;;3.45;2.78;;;13.30;82.60;;;;;;4990521;28;20081;-62
2023/09/27 00:53:33;;;;;;;2.85;2.65;;;13.30;82.70;;;;;;4989671;28;20623;-61
2023/09/27 00:56:01;;;;;;;2.95;2.70;;;13.30;82.80;;;;;;4991208;28;20085;-62
2023/09/27 00:58:30;;;;;;;3.35;3.05;;;13.30;82.50;;;;;;4989095;28;20042;-61
2023/09/27 01:00:58;;;;;;;6.63;2.80;;;13.30;82.60;;;;;;4987221;28;20015;-62
2023/09/27 01:03:24;;;;;;;3.45;3.00;;;13.30;82.40;;;;;;4980839;28;20046;-60
2023/09/27 01:05:49;;;;;;;3.42;2.67;;;13.30;82.30;;;;;;4982707;28;20098;-62
2023/09/27 01:08:15;;;;;;;2.97;2.75;;;13.20;82.20;;;;;;4983090;28;20038;-60
2023/09/27 01:10:41;;;;;;;3.00;2.80;;;13.20;82.20;;;;;;4980198;28;20046;-61
2023/09/27 01:13:07;;;;;;;3.38;3.00;;;13.10;82.40;;;;;;4983008;28;20069;-62
2023/09/27 01:15:33;;;;;;;3.38;3.08;;;13.10;82.60;;;;;;4982685;28;20062;-62
2023/09/27 01:18:00;;;;;;;3.03;2.83;;;13.10;82.70;;;;;;4983332;28;20039;-62
2023/09/27 01:20:27;;;;;;;3.88;3.50;;;13.10;82.70;;;;;;4981779;28;20042;-62
2023/09/27 01:23:00;;;;;;;3.72;3.42;;;13.10;82.60;;;;;;4982576;28;20045;-61
2023/09/27 01:25:30;;;;;;;3.47;3.17;;;13.10;82.80;;;;;;4982306;28;20057;-62
2023/09/27 01:28:01;;;;;;;4.55;4.10;;;13.10;82.60;;;;;;4984253;28;20140;-62
2023/09/27 01:30:34;;;;;;;5.32;4.82;;;13.00;82.70;;;;;;4980963;28;20134;-62
2023/09/27 01:33:06;;;;;;;4.38;3.97;;;13.00;82.70;;;;;;4981113;28;20564;-61
2023/09/27 01:35:40;;;;;;;4.72;3.97;;;13.00;82.80;;;;;;4982688;28;20607;-60
2023/09/27 01:38:07;;;;;;;4.13;3.40;;;12.90;83.10;;;;;;4982616;28;20034;-61
2023/09/27 01:40:37;;;;;;;4.32;3.92;;;12.90;82.90;;;;;;4981331;28;20121;-60
2023/09/27 01:43:04;;;;;;;5.75;4.47;;;12.90;82.90;;;;;;4982293;28;20046;-62
2023/09/27 01:45:31;;;;;;;4.65;4.25;;;13.00;82.90;;;;;;4982825;28;20042;-61
2023/09/27 01:47:57;;;;;;;4.45;4.05;;;12.90;82.80;;;;;;4986122;28;20306;-62
2023/09/27 01:50:24;;;;;;;4.22;3.60;;;12.90;82.60;;;;;;4986704;28;20042;-61
2023/09/27 01:52:54;;;;;;;4.10;3.70;;;12.90;82.60;;;;;;4982186;28;20093;-62
2023/09/27 01:55:20;;;;;;;4.50;3.72;;;12.90;82.60;;;;;;4982642;28;20039;-61
2023/09/27 01:57:46;;;;;;;3.67;3.20;;;12.80;82.40;;;;;;4985973;28;20042;-62
2023/09/27 02:00:14;;;;;;;4.32;3.92;;;12.70;82.60;;;;;;4985648;28;20053;-62
2023/09/27 02:03:04;;;;;;;4.18;3.78;;;12.70;82.80;;;;;;4986307;28;20042;-62
2023/09/27 02:05:30;;;;;;;4.22;3.83;;;12.70;82.90;;;;;;4985044;28;20034;-61
2023/09/27 02:07:56;;;;;;;3.97;3.60;;;12.70;82.70;;;;;;4986343;28;20109;-61
2023/09/27 02:10:22;;;;;;;4.43;3.40;;;12.70;82.70;;;;;;4984795;28;20493;-62
2023/09/27 02:12:48;;;;;;;3.70;3.40;;;12.70;82.70;;;;;;4983955;28;20061;-62
2023/09/27 02:15:15;;;;;;;4.60;3.70;;;12.70;82.70;;;;;;4984945;28;20493;-62
2023/09/27 02:17:41;;;;;;;4.25;3.90;;;12.70;82.70;;;;;;4986933;28;20034;-62
2023/09/27 02:20:10;;;;;;;5.07;4.30;;;12.70;82.70;;;;;;4981655;28;20239;-62
2023/09/27 02:22:36;;;;;;;4.40;4.00;;;12.70;82.40;;;;;;4985054;28;20402;-62
2023/09/27 02:25:02;;;;;;;4.47;4.07;;;12.70;82.30;;;;;;4987051;28;20087;-62
2023/09/27 02:27:28;;;;;;;4.05;3.75;;;12.70;82.30;;;;;;4985251;28;20034;-62
2023/09/27 02:29:53;;;;;;;4.70;4.30;;;12.60;82.10;;;;;;4984647;28;20109;-61
2023/09/27 02:32:19;;;;;;;6.95;4.25;;;12.50;82.10;;;;;;4985044;28;20027;-62
2023/09/27 02:34:46;;;;;;;9.27;5.00;;;12.50;82.30;;;;;;4982819;28;20038;-61
2023/09/27 02:37:15;;;;;;;7.32;5.78;;;12.50;82.50;;;;;;4985561;28;20031;-62
2023/09/27 02:39:44;;;;;;;8.55;5.88;;;12.40;82.60;;;;;;4984775;28;20053;-61
2023/09/27 02:42:13;;;;;;;6.63;5.75;;;12.40;82.70;;;;;;4986002;28;20041;-62
2023/09/27 02:44:39;;;;;;;6.78;5.05;;;12.30;82.70;;;;;;4984217;28;20109;-61
2023/09/27 02:47:06;;;;;;;6.10;5.50;;;12.30;82.70;;;;;;4983730;28;20133;-61
2023/09/27 02:49:35;;;;;;;6.82;6.13;;;12.30;83.00;;;;;;4984324;28;20425;-61
2023/09/27 02:52:01;;;;;;;6.53;5.75;;;12.20;84.30;;;;;;4984956;28;20046;-61
2023/09/27 02:54:30;;;;;;;6.90;5.78;;;12.20;83.50;;;;;;4984512;28;20027;-60
2023/09/27 02:56:55;;;;;;;9.50;6.75;;;12.20;84.00;;;;;;4983104;28;20037;-62
2023/09/27 02:59:21;;;;;;;7.03;6.32;;;12.10;84.00;;;;;;4985107;28;20038;-62
2023/09/27 03:01:46;;;;;;;8.40;7.00;;;12.20;84.30;;;;;;4984142;28;20041;-62
2023/09/27 03:04:15;;;;;;;7.90;6.38;;;12.20;84.50;;;;;;4983654;28;20449;-62
2023/09/27 03:06:41;;;;;;;8.48;6.80;;;12.20;84.70;;;;;;4985463;28;20042;-61
2023/09/27 03:09:08;;;;;;;9.25;6.22;;;12.20;84.60;;;;;;4985750;28;20030;-62
2023/09/27 03:11:34;;;;;;;10.65;6.80;;;12.20;84.60;;;;;;4984407;28;20041;-61
2023/09/27 03:14:00;;;;;;;11.88;7.03;;;12.30;84.60;;;;;;4983467;28;20095;-60
2023/09/27 03:16:26;;;;;;;12.02;7.85;;;12.30;84.60;;;;;;4983634;28;20141;-62
2023/09/27 03:18:54;;;;;;;13.70;8.48;;;12.30;84.50;;;;;;4984548;28;20149;-61
2023/09/27 03:21:20;;;;;;;16.60;9.40;;;12.30;84.50;;;;;;4982855;28;20137;-61
2023/09/27 03:23:46;;;;;;;30.67;13.60;;;12.40;84.60;;;;;;4983046;28;20061;-61
2023/09/27 03:26:12;;;;;;;53.42;29.42;;;12.40;84.70;;;;;;4985045;28;20048;-62
2023/09/27 03:28:38;;;;;;;42.72;24.80;;;12.40;84.80;;;;;;4984760;28;20038;-61
2023/09/27 03:31:05;;;;;;;27.83;15.95;;;12.40;84.80;;;;;;4987224;28;20030;-62
2023/09/27 03:33:31;;;;;;;18.10;12.15;;;12.40;84.80;;;;;;4987229;28;20051;-62
2023/09/27 03:35:57;;;;;;;27.20;10.45;;;12.20;84.90;;;;;;4987657;28;20049;-61
2023/09/27 03:38:23;;;;;;;25.05;10.10;;;12.40;85.20;;;;;;4987718;28;20429;-62
2023/09/27 03:40:49;;;;;;;16.73;9.35;;;12.40;85.30;;;;;;4987124;28;20091;-62
2023/09/27 03:43:15;;;;;;;11.55;8.82;;;12.40;85.40;;;;;;4987434;28;20046;-61
2023/09/27 03:45:41;;;;;;;9.30;8.38;;;12.40;85.70;;;;;;4987616;28;20031;-62
2023/09/27 03:48:06;;;;;;;9.38;8.35;;;12.40;85.70;;;;;;4986659;28;20042;-62
2023/09/27 03:50:32;;;;;;;47.40;7.07;;;12.50;85.90;;;;;;4985778;28;20422;-62
2023/09/27 03:52:58;;;;;;;8.57;7.75;;;12.40;85.70;;;;;;4987338;28;20034;-61
2023/09/27 03:55:25;;;;;;;8.75;7.65;;;12.40;85.60;;;;;;4986899;28;20038;-62
2023/09/27 03:57:51;;;;;;;8.88;7.45;;;12.40;86.50;;;;;;4986470;28;20216;-62
2023/09/27 04:00:20;;;;;;;10.10;7.55;;;12.50;85.80;;;;;;4985013;28;20113;-61
2023/09/27 04:02:46;;;;;;;7.95;7.25;;;12.50;85.60;;;;;;4985218;28;20430;-61
2023/09/27 04:05:12;;;;;;;9.20;8.18;;;12.50;85.60;;;;;;4986146;28;20038;-61
2023/09/27 04:07:39;;;;;;;11.57;7.93;;;12.50;85.60;;;;;;4985394;28;20038;-62
2023/09/27 04:10:06;;;;;;;8.50;7.47;;;12.50;85.50;;;;;;4986361;28;20093;-61
2023/09/27 04:12:32;;;;;;;7.70;6.90;;;12.50;85.20;;;;;;4984157;28;20339;-62
2023/09/27 04:14:57;;;;;;;8.02;7.22;;;12.50;85.20;;;;;;4985549;28;20044;-62
2023/09/27 04:17:23;;;;;;;8.40;7.38;;;12.60;85.20;;;;;;4984071;28;20494;-62
2023/09/27 04:19:53;;;;;;;8.35;7.55;;;12.60;85.20;;;;;;4985596;28;20382;-61
2023/09/27 04:22:18;;;;;;;8.85;7.70;;;12.60;85.30;;;;;;4984859;28;20033;-60
2023/09/27 04:24:44;;;;;;;8.93;8.02;;;12.60;85.20;;;;;;4985894;28;20038;-62
2023/09/27 04:27:09;;;;;;;10.45;8.43;;;12.60;85.20;;;;;;4986871;28;20573;-61
2023/09/27 04:29:35;;;;;;;9.35;8.00;;;12.60;85.20;;;;;;4983227;28;20177;-62
2023/09/27 04:32:01;;;;;;;8.75;7.85;;;12.60;84.90;;;;;;4984145;28;20121;-62
2023/09/27 04:34:28;;;;;;;7.95;7.10;;;12.60;84.70;;;;;;4984855;28;20418;-62
2023/09/27 04:36:53;;;;;;;7.95;7.00;;;12.60;84.90;;;;;;4986600;28;20540;-61
2023/09/27 04:39:19;;;;;;;8.15;7.32;;;12.50;84.90;;;;;;4986438;28;20347;-61
2023/09/27 04:41:46;;;;;;;7.93;7.13;;;12.60;85.00;;;;;;4986430;28;20030;-62
2023/09/27 04:44:13;;;;;;;7.90;7.10;;;12.50;85.10;;;;;;4986294;28;20258;-62
2023/09/27 04:46:38;;;;;;;7.65;6.85;;;12.50;85.10;;;;;;4985812;28;20306;-62
2023/09/27 04:49:04;;;;;;;7.88;7.07;;;12.60;85.10;;;;;;4986990;28;20041;-62
2023/09/27 04:51:30;;;;;;;8.02;7.30;;;12.60;85.00;;;;;;4986820;28;20042;-62
2023/09/27 04:54:00;;;;;;;8.38;7.57;;;12.60;85.00;;;;;;4986111;28;20030;-62
2023/09/27 04:56:26;;;;;;;8.15;7.30;;;12.60;84.90;;;;;;4986415;28;20075;-62
2023/09/27 04:58:52;;;;;;;8.73;7.82;;;12.60;84.80;;;;;;4986219;28;20058;-61
2023/09/27 05:01:18;;;;;;;7.93;7.13;;;12.60;84.60;;;;;;4986573;28;20132;-60
2023/09/27 05:03:43;;;;;;;7.70;6.90;;;12.50;84.50;;;;;;4984886;28;20034;-61
2023/09/27 05:06:09;;;;;;;9.10;7.65;;;12.50;84.50;;;;;;4986639;28;20034;-62
2023/09/27 05:08:34;;;;;;;8.23;7.43;;;12.40;84.50;;;;;;4985733;28;20041;-61
2023/09/27 05:11:00;;;;;;;8.60;7.75;;;12.40;84.60;;;;;;4985510;28;20026;-62
2023/09/27 05:13:26;;;;;;;8.40;7.60;;;12.30;84.80;;;;;;4985960;28;20413;-62
2023/09/27 05:15:52;;;;;;;9.02;8.13;;;12.30;84.90;;;;;;4985990;28;20046;-62
2023/09/27 05:18:19;;;;;;;8.77;7.88;;;12.30;85.00;;;;;;4986406;28;20035;-61
2023/09/27 05:20:44;;;;;;;7.57;6.82;;;12.20;85.00;;;;;;4987195;28;22147;-62
2023/09/27 05:23:13;;;;;;;7.18;6.47;;;12.10;85.00;;;;;;4989464;28;20046;-62
2023/09/27 05:25:39;;;;;;;6.88;5.95;;;12.10;85.00;;;;;;4989880;28;20165;-62
2023/09/27 05:28:05;;;;;;;6.30;5.70;;;12.00;85.00;;;;;;4990226;28;20157;-62
2023/09/27 05:30:31;;;;;;;5.82;5.32;;;12.00;85.10;;;;;;4989625;28;20197;-63
2023/09/27 05:32:57;;;;;;;5.85;5.35;;;12.00;85.30;;;;;;4989716;28;20352;-61
2023/09/27 05:35:23;;;;;;;7.78;6.13;;;11.90;85.50;;;;;;4986961;28;20069;-60
2023/09/27 05:37:49;;;;;;;7.25;6.50;;;12.00;85.80;;;;;;4987419;28;20047;-62
2023/09/27 05:40:15;;;;;;;8.30;7.05;;;11.90;85.90;;;;;;4989753;28;20049;-61
2023/09/27 05:42:41;;;;;;;8.55;7.32;;;12.00;85.90;;;;;;4988378;28;20069;-62
2023/09/27 05:45:11;;;;;;;8.40;7.30;;;12.00;85.90;;;;;;4989934;28;20050;-62
2023/09/27 05:47:37;;;;;;;7.72;6.95;;;12.00;85.70;;;;;;4989924;28;20449;-62
2023/09/27 05:50:04;;;;;;;8.95;7.18;;;12.10;85.80;;;;;;4989712;28;20103;-62
2023/09/27 05:52:30;;;;;;;7.65;6.88;;;12.10;85.50;;;;;;4988595;28;20039;-60
2023/09/27 05:54:56;;;;;;;7.55;6.78;;;12.10;85.50;;;;;;4989660;28;20449;-61
2023/09/27 05:57:22;;;;;;;7.30;6.25;;;12.20;85.50;;;;;;4989437;28;20046;-62
2023/09/27 05:59:48;;;;;;;6.70;5.85;;;12.20;85.50;;;;;;4989353;28;20489;-61
2023/09/27 06:02:16;;;;;;;6.85;6.13;;;12.30;85.60;;;;;;4989439;28;20034;-62
2023/09/27 06:04:46;;;;;;;7.43;6.47;;;12.20;86.40;;;;;;4988271;28;20065;-62
2023/09/27 06:07:14;;;;;;;9.75;6.00;;;12.30;85.60;;;;;;4987989;28;20084;-62
2023/09/27 06:09:41;;;;;;;8.27;7.22;;;12.30;85.50;;;;;;4989037;28;20046;-62
2023/09/27 06:12:08;;;;;;;8.70;6.80;;;12.30;85.80;;;;;;4986355;28;20041;-61
2023/09/27 06:14:34;;;;;;;7.95;6.90;;;12.30;85.90;;;;;;4988398;28;20387;-61
2023/09/27 06:17:02;;;;;;;8.60;6.88;;;12.30;86.10;;;;;;4989506;28;20539;-60
2023/09/27 06:19:28;;;;;;;7.68;6.57;;;12.30;86.20;;;;;;4989020;28;20457;-62
2023/09/27 06:21:53;;;;;;;8.35;6.63;;;12.30;86.30;;;;;;4988752;28;20576;-60
2023/09/27 06:24:19;;;;;;;7.28;5.95;;;12.40;86.50;;;;;;4988607;28;20327;-62
2023/09/27 06:26:44;;;;;;;6.93;5.82;;;12.40;86.70;;;;;;4988640;28;20038;-61
2023/09/27 06:29:10;;;;;;;7.03;6.05;;;12.40;86.70;;;;;;4989172;28;20030;-61
2023/09/27 06:31:36;;;;;;;7.15;5.65;;;12.40;86.70;;;;;;4988732;28;20038;-60
2023/09/27 06:34:01;;;;;;;6.55;5.78;;;12.50;86.90;;;;;;4988996;28;20041;-62
2023/09/27 06:36:34;;;;;;;6.65;5.97;;;12.50;87.00;;;;;;4988251;28;20034;-60
2023/09/27 06:39:00;;;;;;;10.15;6.60;;;12.50;87.30;;;;;;4987145;28;20037;-62
2023/09/27 06:41:26;;;;;;;9.43;6.70;;;12.60;87.40;;;;;;4987188;28;20694;-62
2023/09/27 06:43:53;;;;;;;8.63;6.35;;;12.60;87.50;;;;;;4985766;28;20046;-62
2023/09/27 06:46:19;;;;;;;6.90;5.70;;;12.60;87.70;;;;;;4986827;28;21150;-62
2023/09/27 06:48:45;;;;;;;7.75;5.47;;;12.60;87.80;;;;;;4988367;28;20046;-62
2023/09/27 06:51:13;;;;;;;8.18;5.00;;;12.70;87.80;;;;;;4988559;28;20501;-62
2023/09/27 06:53:39;;;;;;;6.15;5.50;;;12.70;87.80;;;;;;4987835;28;20561;-62
2023/09/27 06:56:05;;;;;;;7.32;5.47;;;12.70;87.70;;;;;;4988318;28;20114;-60
2023/09/27 06:58:32;;;;;;;6.03;5.43;;;12.60;87.60;;;;;;4987718;28;20046;-61
2023/09/27 07:00:57;;;;;;;5.60;5.10;;;12.70;87.80;;;;;;4988632;28;20106;-61
2023/09/27 07:03:28;;;;;;;8.15;5.88;;;12.70;87.80;;;;;;4987513;28;20077;-62
2023/09/27 07:05:54;;;;;;;5.85;5.25;;;12.70;87.90;;;;;;4988325;28;20544;-62
2023/09/27 07:08:20;;;;;;;7.38;6.05;;;12.80;88.10;;;;;;4988233;28;20599;-62
2023/09/27 07:10:47;;;;;;;7.07;6.40;;;12.80;88.10;;;;;;4986568;28;20042;-62
2023/09/27 07:13:12;;;;;;;8.93;5.78;;;12.90;88.30;;;;;;4986844;28;20042;-62
2023/09/27 07:15:38;;;;;;;11.35;6.22;;;12.90;88.30;;;;;;4987677;28;20417;-61
2023/09/27 07:18:04;;;;;;;11.63;6.88;;;12.90;88.20;;;;;;4988107;28;20026;-62
2023/09/27 07:20:34;;;;;;;7.70;6.20;;;13.00;88.30;;;;;;4986860;28;20046;-62
2023/09/27 07:23:03;;;;;;;8.00;6.13;;;13.10;88.50;;;;;;4987582;28;20464;-62
2023/09/27 07:25:32;;;;;;;10.73;6.55;;;13.10;88.50;;;;;;4987892;28;20567;-62
2023/09/27 07:28:00;;;;;;;8.88;6.22;;;13.20;88.50;;;;;;4987973;28;20077;-63
2023/09/27 07:30:28;;;;;;;9.10;6.90;;;13.30;88.50;;;;;;4987217;28;20061;-62
2023/09/27 07:32:55;;;;;;;13.85;6.65;;;13.30;88.60;;;;;;4987125;28;20080;-62
2023/09/27 07:35:21;;;;;;;8.70;6.85;;;13.40;88.80;;;;;;4987699;28;20122;-63
2023/09/27 07:37:47;;;;;;;7.63;6.25;;;13.50;88.90;;;;;;4987787;28;20062;-62
2023/09/27 07:40:14;;;;;;;11.88;7.20;;;13.50;89.00;;;;;;4987739;28;20034;-62
2023/09/27 07:42:44;;;;;;;7.50;6.78;;;13.60;89.20;;;;;;4986488;28;20042;-63
2023/09/27 07:45:22;;;;;;;9.88;7.28;;;13.70;89.30;;;;;;4987362;28;20513;-62
2023/09/27 07:47:50;;;;;;;8.65;7.50;;;13.80;89.20;;;;;;4987204;28;20079;-61
2023/09/27 07:50:31;;;;;;;8.38;6.93;;;13.90;89.30;;;;;;4987713;28;20018;-61
2023/09/27 07:53:02;;;;;;;12.18;7.47;;;14.00;89.40;;;;;;4986945;28;20034;-62
2023/09/27 07:55:28;;;;;;;9.90;7.10;;;14.10;89.50;;;;;;4987685;28;20434;-62
2023/09/27 07:57:54;;;;;;;8.90;7.60;;;14.20;89.50;;;;;;4987642;28;20046;-61
2023/09/27 08:00:25;;;;;;;9.20;7.28;;;14.30;89.50;;;;;;4987059;28;20332;-62
2023/09/27 08:02:51;;;;;;;10.30;7.97;;;14.40;89.50;;;;;;4984852;28;20042;-62
2023/09/27 08:05:17;;;;;;;10.05;7.70;;;14.50;89.70;;;;;;4984853;28;20548;-62
2023/09/27 08:07:46;;;;;;;12.77;8.95;;;14.60;89.70;;;;;;4987562;28;20126;-62
2023/09/27 08:10:12;;;;;;;10.98;7.95;;;14.60;89.80;;;;;;4987616;28;20409;-62
2023/09/27 08:12:38;;;;;;;10.27;8.23;;;14.80;89.90;;;;;;4984512;28;20034;-62
2023/09/27 08:15:06;;;;;;;16.45;8.80;;;14.80;90.00;;;;;;4985577;28;20109;-62
2023/09/27 08:17:32;;;;;;;17.83;8.35;;;14.90;90.00;;;;;;4986831;28;20093;-62
2023/09/27 08:19:59;;;;;;;14.10;8.60;;;15.00;90.00;;;;;;4984400;28;20034;-62
2023/09/27 08:22:24;;;;;;;13.27;9.07;;;15.20;90.10;;;;;;4985692;28;20389;-62
2023/09/27 08:24:50;;;;;;;13.95;9.32;;;15.30;90.10;;;;;;4987388;28;20031;-63
2023/09/27 08:27:17;;;;;;;13.90;8.40;;;15.40;90.20;;;;;;4984588;28;20037;-62
2023/09/27 08:29:42;;;;;;;13.70;8.55;;;15.50;90.20;;;;;;4986868;28;20045;-62
2023/09/27 08:32:08;;;;;;;12.48;8.43;;;15.70;90.30;;;;;;4987856;28;20034;-62
2023/09/27 08:34:34;;;;;;;12.50;8.35;;;15.80;90.20;;;;;;4987601;28;20109;-62
2023/09/27 08:37:00;;;;;;;11.55;8.18;;;16.00;90.20;;;;;;4988302;28;20028;-62
2023/09/27 08:39:30;;;;;;;15.25;8.85;;;16.10;90.20;;;;;;4988093;28;20125;-62
2023/09/27 08:41:58;;;;;;;20.73;8.57;;;16.20;90.20;;;;;;4987248;28;20062;-62
2023/09/27 08:44:24;;;;;;;12.75;8.40;;;16.30;90.10;;;;;;4987987;28;20046;-61
2023/09/27 08:46:54;;;;;;;14.05;8.43;;;16.50;90.00;;;;;;4987434;28;20387;-62
2023/09/27 08:49:20;;;;;;;14.80;8.05;;;16.60;89.80;;;;;;4987892;28;20037;-61
2023/09/27 08:51:48;;;;;;;14.55;8.88;;;16.70;89.60;;;;;;4987958;28;20034;-62
2023/09/27 08:54:18;;;;;;;14.90;9.00;;;16.80;89.50;;;;;;4988349;28;20030;-62
2023/09/27 08:56:48;;;;;;;11.98;8.20;;;16.90;89.20;;;;;;4991564;28;20046;-62
2023/09/27 08:59:14;;;;;;;13.38;8.25;;;17.00;89.20;;;;;;4992108;28;20034;-62
2023/09/27 09:01:43;;;;;;;14.45;8.70;;;17.10;89.00;;;;;;4991944;28;20043;-62
2023/09/27 09:04:10;;;;;;;15.98;8.55;;;17.20;88.80;;;;;;4991510;28;20057;-62
2023/09/27 09:06:41;;;;;;;13.73;8.55;;;17.30;88.60;;;;;;4990858;28;20035;-62
2023/09/27 09:09:11;;;;;;;10.65;7.88;;;17.40;88.30;;;;;;4991681;28;20062;-62
2023/09/27 09:11:47;;;;;;;12.52;8.23;;;17.50;88.10;;;;;;4989712;28;20038;-62
2023/09/27 09:14:17;;;;;;;12.27;7.70;;;17.60;87.80;;;;;;4991534;28;20092;-62
2023/09/27 09:16:50;;;;;;;13.85;8.43;;;17.70;87.50;;;;;;4991075;28;20544;-61
2023/09/27 09:19:22;;;;;;;11.25;7.43;;;17.80;88.10;;;;;;4991586;28;20038;-62
2023/09/27 09:22:00;;;;;;;11.10;7.03;;;17.90;87.10;;;;;;4991395;28;20026;-62
2023/09/27 09:24:26;;;;;;;11.85;7.43;;;18.00;86.40;;;;;;4990095;28;20042;-62
2023/09/27 09:27:08;;;;;;;11.52;7.20;;;18.10;86.40;;;;;;4991337;28;20038;-62
2023/09/27 09:29:50;;;;;;;11.55;7.05;;;18.20;85.90;;;;;;4989437;28;20049;-62
2023/09/27 09:32:20;;;;;;;8.82;6.72;;;18.30;85.50;;;;;;4990571;28;20458;-62
2023/09/27 09:34:52;;;;;;;10.07;6.95;;;18.30;85.30;;;;;;4990879;28;20046;-62
2023/09/27 09:37:21;;;;;;;8.77;5.88;;;18.50;85.20;;;;;;4991283;28;20031;-62
2023/09/27 09:39:49;;;;;;;7.90;6.03;;;18.60;84.70;;;;;;4991013;28;20041;-62
2023/09/27 09:42:32;;;;;;;6.50;5.80;;;18.70;84.30;;;;;;4990868;28;20036;-62
2023/09/27 09:45:06;;;;;;;8.02;5.88;;;18.80;83.50;;;;;;4990700;28;20034;-62
2023/09/27 09:47:35;;;;;;;10.63;6.78;;;18.90;83.60;;;;;;4991183;28;20038;-62
2023/09/27 09:50:03;;;;;;;6.40;5.78;;;19.00;83.60;;;;;;4991095;28;20034;-62
2023/09/27 09:52:32;;;;;;;8.35;5.78;;;19.10;83.60;;;;;;4990733;28;20589;-62
2023/09/27 09:54:58;;;;;;;6.63;5.85;;;19.20;82.20;;;;;;4990818;28;20031;-62
2023/09/27 09:57:36;;;;;;;8.27;6.07;;;19.30;82.30;;;;;;4991294;28;20133;-61
2023/09/27 10:00:12;;;;;;;8.75;6.18;;;19.40;81.50;;;;;;4990878;28;20246;-60
2023/09/27 10:02:51;;;;;;;7.75;6.28;;;19.50;81.40;;;;;;4989588;28;20409;-62
2023/09/27 10:05:23;;;;;;;9.60;5.70;;;19.60;81.30;;;;;;4990305;28;20027;-62
2023/09/27 10:07:51;;;;;;;8.00;5.70;;;19.70;81.50;;;;;;4990250;28;20129;-63
2023/09/27 10:10:20;;;;;;;6.53;5.38;;;19.80;81.60;;;;;;4990576;28;20026;-61
2023/09/27 10:12:48;;;;;;;7.38;5.00;;;19.90;81.50;;;;;;4989136;28;20383;-62
2023/09/27 10:15:17;;;;;;;6.93;4.68;;;20.00;81.00;;;;;;4990480;28;20109;-62
2023/09/27 10:17:43;;;;;;;5.75;4.38;;;20.10;80.50;;;;;;4990263;28;20493;-62
2023/09/27 10:20:14;;;;;;;5.13;4.25;;;20.20;80.10;;;;;;4990836;28;20053;-63
2023/09/27 10:22:44;;;;;;;4.32;3.50;;;20.30;79.40;;;;;;4988814;28;20043;-63
2023/09/27 10:25:30;;;;;;;5.55;2.90;;;20.40;78.70;;;;;;4989370;28;20026;-62
2023/09/27 10:28:02;;;;;;;3.80;3.10;;;20.50;78.00;;;;;;4990218;28;20038;-63
2023/09/27 10:30:50;;;;;;;5.70;2.85;;;20.60;77.80;;;;;;4989956;28;20061;-63
2023/09/27 10:33:20;;;;;;;3.53;2.72;;;20.60;78.00;;;;;;4988305;28;20049;-62
2023/09/27 10:35:46;;;;;;;6.18;3.10;;;20.80;77.90;;;;;;4988838;28;20026;-63
2023/09/27 10:38:13;;;;;;;3.10;2.80;;;20.80;78.40;;;;;;4986845;28;20042;-63
2023/09/27 10:40:43;;;;;;;5.30;2.88;;;21.00;77.40;;;;;;4986883;28;20069;-63
2023/09/27 10:43:10;;;;;;;3.58;2.50;;;21.00;76.30;;;;;;4987969;28;20065;-63
2023/09/27 10:45:35;;;;;;;2.80;2.38;;;21.20;76.90;;;;;;4989920;28;20142;-62
2023/09/27 10:48:18;;;;;;;2.63;2.00;;;21.30;76.50;;;;;;4990225;28;20561;-63
2023/09/27 10:50:56;;;;;;;2.80;1.90;;;21.40;74.40;;;;;;4989184;28;20084;-63
2023/09/27 10:53:26;;;;;;;2.78;2.00;;;21.50;72.30;;;;;;4989162;28;20037;-62
2023/09/27 10:55:52;;;;;;;2.60;1.90;;;21.60;72.40;;;;;;4989291;28;20121;-63
2023/09/27 10:58:18;;;;;;;2.75;2.35;;;21.80;72.90;;;;;;4989956;28;20035;-63
2023/09/27 11:01:00;;;;;;;2.47;2.08;;;21.90;71.80;;;;;;4989116;28;20505;-63
2023/09/27 11:03:29;;;;;;;3.33;2.30;;;22.00;70.60;;;;;;4988604;28;20042;-63
2023/09/27 11:06:11;;;;;;;3.00;1.83;;;22.00;71.40;;;;;;4989557;28;20042;-63
2023/09/27 11:08:37;;;;;;;3.80;1.80;;;22.10;70.50;;;;;;4988890;28;20104;-63
2023/09/27 11:11:06;;;;;;;3.22;1.73;;;22.20;70.10;;;;;;4989023;28;20497;-63
2023/09/27 11:13:32;;;;;;;2.55;1.90;;;22.30;68.60;;;;;;4988988;28;20108;-63
2023/09/27 11:16:12;;;;;;;2.80;1.95;;;22.30;68.50;;;;;;4989610;28;20263;-63
2023/09/27 11:18:57;;;;;;;1.83;1.73;;;22.40;67.40;;;;;;4987845;28;20042;-63
2023/09/27 11:21:25;;;;;;;1.83;1.73;;;22.50;65.60;;;;;;4989350;28;20034;-63
2023/09/27 11:24:04;;;;;;;3.25;1.85;;;22.60;67.10;;;;;;4988580;28;20133;-63
2023/09/27 11:26:32;;;;;;;3.13;1.80;;;22.70;65.70;;;;;;4988834;28;20034;-62
2023/09/27 11:29:04;;;;;;;1.98;1.73;;;22.70;66.60;;;;;;4988695;28;20038;-63
2023/09/27 11:31:34;;;;;;;3.53;1.90;;;22.80;66.50;;;;;;4988211;28;20038;-63
2023/09/27 11:34:17;;;;;;;3.40;1.77;;;22.80;66.10;;;;;;4988672;28;20117;-63
2023/09/27 11:36:51;;;;;;;2.28;1.85;;;22.90;64.60;;;;;;4988446;28;20438;-63
2023/09/27 11:39:19;;;;;;;2.30;2.10;;;23.00;65.20;;;;;;4988961;28;20053;-63
2023/09/27 11:41:45;;;;;;;4.63;1.90;;;23.00;65.70;;;;;;4988959;28;20061;-63
2023/09/27 11:44:21;;;;;;;1.92;1.77;;;23.10;65.00;;;;;;4986694;28;20046;-63
2023/09/27 11:46:51;;;;;;;3.35;1.85;;;23.10;63.90;;;;;;4986902;28;20038;-63
2023/09/27 11:49:26;;;;;;;2.35;1.55;;;23.10;64.50;;;;;;4988660;28;20041;-62
2023/09/27 11:51:51;;;;;;;2.33;1.65;;;23.20;63.00;;;;;;4988563;28;20037;-63
2023/09/27 11:54:17;;;;;;;1.60;1.50;;;23.20;63.70;;;;;;4988951;28;20026;-63
2023/09/27 11:56:43;;;;;;;2.35;1.73;;;23.30;63.70;;;;;;4988325;28;20042;-63
2023/09/27 11:59:10;;;;;;;2.78;1.95;;;23.30;63.40;;;;;;4988722;28;20042;-63
2023/09/27 12:01:36;;;;;;;2.70;1.85;;;23.40;63.30;;;;;;4988599;28;20044;-62
2023/09/27 12:04:02;;;;;;;2.15;1.95;;;23.40;62.20;;;;;;4987650;28;20034;-63
2023/09/27 12:06:29;;;;;;;2.00;1.80;;;23.40;61.80;;;;;;4988326;28;20030;-63
2023/09/27 12:08:55;;;;;;;2.47;2.00;;;23.40;61.40;;;;;;4988904;28;20089;-63
2023/09/27 12:11:21;;;;;;;1.70;1.52;;;23.50;60.80;;;;;;4986943;28;20636;-63
2023/09/27 12:13:47;;;;;;;3.72;1.92;;;23.50;61.50;;;;;;4988571;28;20117;-63
2023/09/27 12:16:12;;;;;;;2.75;2.03;;;23.60;60.80;;;;;;4988937;28;20161;-63
2023/09/27 12:18:38;;;;;;;2.38;1.80;;;23.60;61.00;;;;;;4988327;28;20038;-63
2023/09/27 12:21:04;;;;;;;2.28;1.75;;;23.60;60.80;;;;;;4988269;28;20038;-63
2023/09/27 12:23:30;;;;;;;2.92;1.80;;;23.60;61.30;;;;;;4987935;28;20053;-63
2023/09/27 12:25:56;;;;;;;2.78;2.17;;;23.70;60.30;;;;;;4988110;28;20041;-63
2023/09/27 12:28:22;;;;;;;2.00;1.73;;;23.70;60.30;;;;;;4988427;28;20402;-63
2023/09/27 12:30:48;;;;;;;2.55;1.63;;;23.70;61.20;;;;;;4987021;28;20038;-63
2023/09/27 12:33:15;;;;;;;4.68;1.92;;;23.70;60.10;;;;;;4986571;28;20111;-63
2023/09/27 12:35:44;;;;;;;3.13;1.77;;;23.80;60.00;;;;;;4988083;28;20521;-63
2023/09/27 12:38:10;;;;;;;3.30;1.80;;;23.80;59.70;;;;;;4987948;28;20044;-62
2023/09/27 12:40:36;;;;;;;2.78;1.80;;;23.80;59.90;;;;;;4987197;28;20039;-63
2023/09/27 12:43:03;;;;;;;2.60;1.80;;;23.80;59.60;;;;;;4987972;28;20064;-63
2023/09/27 12:45:29;;;;;;;2.55;1.80;;;23.80;59.50;;;;;;4986994;28;20543;-62
2023/09/27 12:47:55;;;;;;;3.38;1.85;;;23.80;59.80;;;;;;4987426;28;20462;-63
2023/09/27 12:50:26;;;;;;;4.20;1.65;;;23.90;59.80;;;;;;4987745;28;20038;-63